Flight Track Log - Related Links

Times and Time Zones

All times are in EDT time to prevent confusion due to time zone crossing. See the JBU917 flight status page for this flight to view local times or setup timezone preferences in your user account.

Time Position Orientation Groundspeed Altitude Reporting Facility
EDT Latitude Longitude Course Direction KTS MPH feet Rate Location/Type
Sun 10:27:13 PM 40.6167 -73.8667 304° West 196 226 3,200  Level New York TRACON
Sun 10:28:13 PM 40.5833 -73.8167 131° Southeast 257 296 6,500 2,876 Climbing New York TRACON
Sun 10:29:00 PM 40.8541 -74.1914 304° West  Level FlightAware Approximate
Sun 10:29:14 PM 40.6167 -73.7500 57° Northeast 309 356 9,000  Level New York TRACON
Sun 10:30:00 PM 40.9120 -74.2997 306° West  Level FlightAware Approximate
Sun 10:30:13 PM 40.6833 -73.6500 49° Northeast 302 348 10,800  Level New York TRACON
Sun 10:31:00 PM 40.9721 -74.4055 323° Northwest  Level FlightAware Approximate
Sun 10:31:14 PM 40.7500 -73.5667 43° Northeast 373 429 12,500  Level New York TRACON
Sun 10:32:00 PM 41.0361 -74.5056 304° West  Level FlightAware Approximate
Sun 10:32:14 PM 40.8500 -73.5667 360° North 369 425 14,800  Level New York TRACON
Sun 10:33:53 PM 40.9522 -73.7108 313° West 352 405 17,100 868 Climbing New York Center
Sun 10:34:53 PM 40.9783 -73.8331 286° West 315 362 17,100  Level New York Center
Sun 10:35:54 PM 40.9964 -73.9356 283° West 315 362 17,100  Level New York Center
Sun 10:36:53 PM 41.0200 -74.0547 285° West 315 362 17,100  Level New York Center
Sun 10:37:54 PM 41.0381 -74.1575 283° West 320 368 17,100  Level New York Center
Sun 10:38:54 PM 41.0597 -74.2714 284° West 320 368 17,100 500 Level New York Center
Sun 10:39:54 PM 41.0831 -74.3964 284° West 320 368 18,100 1,438 Climbing New York Center
Sun 10:40:55 PM 41.1008 -74.4964 283° West 320 368 20,000 1,900 Climbing New York Center
Sun 10:41:54 PM 41.1219 -74.6161 283° West 320 368 21,900 1,866 Climbing New York Center
Sun 10:42:54 PM 41.1533 -74.7364 289° West 333 383 23,700 1,537 Climbing New York Center
Sun 10:43:55 PM 41.2036 -74.8497 301° West 345 397 25,000 1,190 Climbing New York Center
Sun 10:44:55 PM 41.2556 -74.9714 300° West 366 421 26,100 1,220 Climbing New York Center
Sun 10:45:53 PM 41.3094 -75.0964 300° West 380 437 27,400 1,261 Climbing New York Center
Sun 10:46:54 PM 41.3631 -75.2214 300° West 385 443 28,600 1,082 Climbing New York Center
Sun 10:47:55 PM 41.4186 -75.3494 300° West 390 449 29,600 1,140 Climbing New York Center
Sun 10:48:55 PM 41.4719 -75.4750 300° West 390 449 30,900 1,100 Climbing New York Center
Sun 10:49:55 PM 41.5125 -75.6081 292° West 390 449 31,800 1,000 Climbing New York Center
Sun 10:50:55 PM 41.5506 -75.7439 291° West 390 449 32,900 1,017 Climbing New York Center
Sun 10:51:53 PM 41.5942 -75.8942 291° West 390 449 33,800 361 Climbing New York Center
Sun 10:53:58 PM 41.6756 -76.1875 290° West 425 489 34,000 65 Climbing Cleveland Center
Sun 10:54:58 PM 41.7144 -76.3322 290° West 418 481 34,000  Level Cleveland Center
Sun 10:55:58 PM 41.7572 -76.4742 292° West 418 481 34,000  Level Cleveland Center
Sun 10:56:58 PM 41.7978 -76.6192 291° West 412 474 34,000  Level Cleveland Center
Sun 10:57:58 PM 41.8361 -76.7647 290° West 417 480 34,000  Level Cleveland Center
Sun 10:58:58 PM 41.8742 -76.9075 290° West 417 480 34,000  Level Cleveland Center
Sun 10:59:58 PM 41.9161 -77.0503 292° West 417 480 34,000  Level Cleveland Center
Sun 11:00:58 PM 41.9539 -77.1933 290° West 417 480 34,000  Level Cleveland Center
Sun 11:01:58 PM 41.9933 -77.3394 290° West 417 480 34,000  Level Cleveland Center
Sun 11:02:58 PM 42.0331 -77.4856 290° West 417 480 34,000  Level Cleveland Center
Sun 11:03:58 PM 42.0722 -77.6292 290° West 417 480 34,000  Level Cleveland Center
Sun 11:04:58 PM 42.1069 -77.7731 288° West 417 480 34,000  Level Cleveland Center
Sun 11:05:58 PM 42.1481 -77.9197 291° West 417 480 34,000  Level Cleveland Center
Sun 11:06:58 PM 42.1803 -78.0500 288° West 417 480 34,000  Level Cleveland Center
Sun 11:07:58 PM 42.2189 -78.1972 290° West 417 480 34,000  Level Cleveland Center
Sun 11:08:58 PM 42.2572 -78.3472 289° West 417 480 34,000  Level Cleveland Center
Sun 11:09:58 PM 42.2953 -78.4947 289° West 417 480 34,000  Level Cleveland Center
Sun 11:10:58 PM 42.3333 -78.6422 289° West 417 480 34,000  Level Cleveland Center
Sun 11:11:58 PM 42.3714 -78.7900 289° West 417 480 34,000  Level Cleveland Center
Sun 11:12:58 PM 42.4092 -78.9522 288° West 417 480 34,000  Level Cleveland Center
Sun 11:13:58 PM 42.4486 -79.1003 290° West 422 486 34,000  Level Cleveland Center
Sun 11:14:58 PM 42.4817 -79.2347 288° West 422 486 34,000  Level Cleveland Center
Sun 11:15:58 PM 42.4978 -79.3836 278° West 415 478 34,000  Level Cleveland Center
Sun 11:16:58 PM 42.5056 -79.5383 274° West 409 471 34,000  Level Cleveland Center
Sun 11:17:58 PM 42.5131 -79.6931 274° West 409 471 34,000  Level Cleveland Center
Sun 11:18:58 PM 42.5225 -79.8481 275° West 409 471 34,000  Level Cleveland Center
Sun 11:19:58 PM 42.5214 -80.0000 269° West 404 465 34,000  Level Cleveland Center
Sun 11:20:58 PM 42.5303 -80.1550 275° West 404 465 34,000  Level Cleveland Center
Sun 11:21:58 PM 42.5350 -80.3069 272° West 404 465 34,000  Level Cleveland Center
Sun 11:22:58 PM 42.5436 -80.4619 274° West 404 465 34,000  Level Cleveland Center
Sun 11:23:58 PM 42.5497 -80.6169 273° West 410 472 34,000  Level Cleveland Center
Sun 11:24:58 PM 42.5558 -80.7664 273° West 409 471 34,000  Level Cleveland Center
Sun 11:25:58 PM 42.5619 -80.9186 273° West 404 465 34,000  Level Cleveland Center
Sun 11:26:58 PM 42.5675 -81.0878 273° West 404 465 34,000  Level Cleveland Center
Sun 11:27:58 PM 42.5792 -81.2431 276° West 404 465 34,000  Level Cleveland Center
Sun 11:28:58 PM 42.5950 -81.3956 278° West 404 465 34,000  Level Cleveland Center
Sun 11:29:58 PM 42.6103 -81.5453 278° West 409 471 34,000  Level Cleveland Center
Sun 11:30:58 PM 42.6258 -81.6950 278° West 409 471 34,000  Level Cleveland Center
Sun 11:31:58 PM 42.6408 -81.8506 278° West 409 471 34,000  Level Cleveland Center
Sun 11:32:58 PM 42.6556 -82.0061 277° West 409 471 34,000  Level Cleveland Center
Sun 11:33:58 PM 42.6725 -82.1589 279° West 414 476 34,000  Level Cleveland Center
Sun 11:34:58 PM 42.6869 -82.3119 277° West 414 476 34,000  Level Cleveland Center
Sun 11:35:58 PM 42.7031 -82.4706 278° West 414 476 34,000  Level Cleveland Center
Sun 11:36:58 PM 42.7153 -82.6233 276° West 414 476 34,000  Level Cleveland Center
Sun 11:37:58 PM 42.7311 -82.7767 278° West 414 476 34,000  Level Cleveland Center
Sun 11:38:58 PM 42.7447 -82.9269 277° West 409 471 34,000  Level Cleveland Center
Sun 11:39:58 PM 42.7583 -83.0803 277° West 409 471 34,000  Level Cleveland Center
Sun 11:40:58 PM 42.7719 -83.2192 278° West 409 471 34,000  Level Cleveland Center
Sun 11:41:58 PM 42.7828 -83.3725 276° West 409 471 34,000  Level Cleveland Center
Sun 11:42:58 PM 42.7978 -83.5289 277° West 414 476 34,000  Level Cleveland Center
Sun 11:43:58 PM 42.8103 -83.6853 276° West 414 476 34,000  Level Cleveland Center
Sun 11:44:58 PM 42.8228 -83.8386 276° West 414 476 34,000  Level Cleveland Center
Sun 11:45:58 PM 42.8369 -83.9981 277° West 414 476 34,000 -150 Level Cleveland Center
Sun 11:46:58 PM 42.8489 -84.1517 276° West 414 476 33,700 -650 Descending Cleveland Center
Sun 11:47:58 PM 42.8606 -84.3081 276° West 414 476 32,700 -850 Descending Cleveland Center
Sun 11:48:58 PM 42.8758 -84.4764 277° West 414 476 32,000 -488 Descending Cleveland Center
Sun 11:49:24 PM 42.8808 -84.5322 277° West 413 475 32,000  Level Chicago Center
Sun 11:50:25 PM 42.8731 -84.6933 266° West 428 493 32,000  Level Chicago Center
Sun 11:51:25 PM 42.8564 -84.8511 262° West 423 487 32,000  Level Chicago Center
Sun 11:52:26 PM 42.8400 -85.0100 262° West 424 488 32,000  Level Chicago Center
Sun 11:53:27 PM 42.8225 -85.1703 262° West 428 493 32,000  Level Chicago Center
Sun 11:54:27 PM 42.8047 -85.3297 261° West 427 491 32,000  Level Chicago Center
Sun 11:55:28 PM 42.7872 -85.4906 262° West 427 491 32,000  Level Chicago Center
Sun 11:56:28 PM 42.7589 -85.6511 257° West 433 498 32,000 -50 Level Chicago Center
Sun 11:57:29 PM 42.7306 -85.8128 257° West 435 501 31,900 -1,140 Descending Chicago Center
Sun 11:58:29 PM 42.7006 -85.9728 256° West 434 499 29,700 -2,231 Descending Chicago Center
Sun 11:59:30 PM 42.6725 -86.1303 256° West 429 494 27,400 -2,231 Descending Chicago Center
Mon 12:00:30 AM 42.6444 -86.2800 256° West 416 479 25,200 -2,132 Descending Chicago Center
Mon 12:01:31 AM 42.6169 -86.4233 255° West 395 455 23,100 -2,033 Descending Chicago Center
Mon 12:02:31 AM 42.5906 -86.5650 256° West 390 449 21,100 -2,100 Descending Chicago Center
Mon 12:03:31 AM 42.5622 -86.7197 256° West 375 432 18,900 -1,934 Descending Chicago Center
Mon 12:04:32 AM 42.5281 -86.8458 250° West 361 415 17,200 -1,736 Descending Chicago Center
Mon 12:05:32 AM 42.4992 -86.9561 250° West 358 412 15,400 -1,835 Descending Chicago Center
Mon 12:06:33 AM 42.4633 -87.0789 248° West 353 406 13,500 -1,835 Descending Chicago Center
Mon 12:07:33 AM 42.4311 -87.2000 250° West 345 397 11,700 -1,686 Descending Chicago Center
Mon 12:08:34 AM 42.3989 -87.3172 250° West 335 386 10,100 -843 Descending Chicago Center
Mon 12:09:34 AM 42.3672 -87.4331 250° West 302 348 10,000 -50 Descending Chicago Center
Mon 12:10:34 AM 42.3350 -87.5378 247° West 304 350 10,000 50 Level Chicago Center
Mon 12:11:35 AM 42.2661 -87.6103 218° Southwest 314 361 10,100  Climbing Chicago Center
Mon 12:12:35 AM 42.1967 -87.6836 218° Southwest 316 364 10,000 -100 Descending Chicago Center
Mon 12:13:35 AM 42.1308 -87.7542 218° Southwest 307 353 9,900 -574 Descending Chicago Center
Mon 12:14:09 AM 42.1000 -87.8000 228° Southwest 276 318 9,100 -1,340 Descending Chicago TRACON
Mon 12:15:09 AM 42.1000 -87.9000 270° West 263 303 7,800 -950 Descending Chicago TRACON
Mon 12:16:09 AM 42.1000 -87.9833 270° West 239 275 7,200 -600 Descending Chicago TRACON
Mon 12:17:09 AM 42.0833 -88.0667 255° West 213 245 6,600 -1,000 Descending Chicago TRACON
Mon 12:18:09 AM 42.0833 -88.1500 270° West 212 244 5,200 -1,295 Descending Chicago TRACON
Mon 12:18:37 AM 42.0706 -88.1789 239° Southwest 221 254 4,700 -674 Descending Chicago Center
Mon 12:19:38 AM 42.0103 -88.1722 175° South 222 255 4,200 -496 Descending Chicago Center
Mon 12:20:38 AM 41.9689 -88.1083 131° Southeast 226 260 3,700 -783 Descending Chicago Center
Mon 12:21:10 AM 41.9667 -88.0667 94° East 199 229 3,000 -1,174 Descending Chicago TRACON
Mon 12:22:10 AM 41.9667 -88.0000 90° East 160 184 1,900 -1,000 Descending Chicago TRACON
Mon 12:23:10 AM 41.9667 -87.9500 90° East 153 176 1,000 -900 Descending Chicago TRACON

Login

Don't have an account? Register now (free) for customized features, flight alerts, and more!